sensor_id;sensor_type;location;lat;lon;timestamp;P1;durP1;ratioP1;P2;durP2;ratioP2
11328;SDS011;5719;42.714;23.732;2022-07-03T00:00:08;8.70;;;7.80;;
11328;SDS011;5719;42.714;23.732;2022-07-03T00:02:36;9.40;;;7.93;;
11328;SDS011;5719;42.714;23.732;2022-07-03T00:05:03;10.25;;;7.47;;
11328;SDS011;5719;42.714;23.732;2022-07-03T00:07:30;9.60;;;7.80;;
11328;SDS011;5719;42.714;23.732;2022-07-03T00:09:57;7.93;;;7.10;;
11328;SDS011;5719;42.714;23.732;2022-07-03T00:12:24;8.77;;;7.70;;
11328;SDS011;5719;42.714;23.732;2022-07-03T00:14:51;15.55;;;8.63;;
11328;SDS011;5719;42.714;23.732;2022-07-03T00:17:19;11.02;;;7.45;;
11328;SDS011;5719;42.714;23.732;2022-07-03T00:19:46;10.05;;;7.20;;
11328;SDS011;5719;42.714;23.732;2022-07-03T00:22:13;8.88;;;7.57;;
11328;SDS011;5719;42.714;23.732;2022-07-03T00:24:42;8.70;;;7.65;;
11328;SDS011;5719;42.714;23.732;2022-07-03T00:27:10;9.85;;;7.53;;
11328;SDS011;5719;42.714;23.732;2022-07-03T00:29:38;9.45;;;7.68;;
11328;SDS011;5719;42.714;23.732;2022-07-03T00:32:09;8.95;;;7.60;;
11328;SDS011;5719;42.714;23.732;2022-07-03T00:34:39;11.18;;;8.05;;
11328;SDS011;5719;42.714;23.732;2022-07-03T00:37:07;11.52;;;8.70;;
11328;SDS011;5719;42.714;23.732;2022-07-03T00:39:35;8.45;;;7.55;;
11328;SDS011;5719;42.714;23.732;2022-07-03T00:42:04;7.70;;;6.95;;
11328;SDS011;5719;42.714;23.732;2022-07-03T00:44:33;10.40;;;7.72;;
11328;SDS011;5719;42.714;23.732;2022-07-03T00:47:02;7.57;;;6.93;;
11328;SDS011;5719;42.714;23.732;2022-07-03T00:49:31;9.57;;;7.20;;
11328;SDS011;5719;42.714;23.732;2022-07-03T00:52:03;7.57;;;6.85;;
11328;SDS011;5719;42.714;23.732;2022-07-03T00:54:32;7.93;;;7.13;;
11328;SDS011;5719;42.714;23.732;2022-07-03T00:57:00;8.40;;;7.53;;
11328;SDS011;5719;42.714;23.732;2022-07-03T00:59:29;9.40;;;7.10;;
11328;SDS011;5719;42.714;23.732;2022-07-03T01:01:59;9.40;;;7.20;;
11328;SDS011;5719;42.714;23.732;2022-07-03T01:04:35;7.60;;;6.90;;
11328;SDS011;5719;42.714;23.732;2022-07-03T01:07:16;10.43;;;7.13;;
11328;SDS011;5719;42.714;23.732;2022-07-03T01:09:54;10.85;;;7.57;;
11328;SDS011;5719;42.714;23.732;2022-07-03T01:15:19;8.35;;;7.55;;
11328;SDS011;5719;42.714;23.732;2022-07-03T01:18:02;9.15;;;7.45;;
11328;SDS011;5719;42.714;23.732;2022-07-03T01:20:39;10.05;;;7.20;;
11328;SDS011;5719;42.714;23.732;2022-07-03T01:23:20;10.23;;;7.60;;
11328;SDS011;5719;42.714;23.732;2022-07-03T01:25:58;9.90;;;7.72;;
11328;SDS011;5719;42.714;23.732;2022-07-03T01:28:29;8.10;;;7.03;;
11328;SDS011;5719;42.714;23.732;2022-07-03T01:31:01;8.85;;;7.60;;
11328;SDS011;5719;42.714;23.732;2022-07-03T01:33:30;18.83;;;9.05;;
11328;SDS011;5719;42.714;23.732;2022-07-03T01:36:01;8.43;;;7.50;;
11328;SDS011;5719;42.714;23.732;2022-07-03T01:38:32;11.07;;;7.78;;
11328;SDS011;5719;42.714;23.732;2022-07-03T01:41:02;13.32;;;7.78;;
11328;SDS011;5719;42.714;23.732;2022-07-03T01:43:30;10.38;;;7.88;;
11328;SDS011;5719;42.714;23.732;2022-07-03T01:45:59;9.77;;;7.35;;
11328;SDS011;5719;42.714;23.732;2022-07-03T01:48:27;8.60;;;7.10;;
11328;SDS011;5719;42.714;23.732;2022-07-03T01:50:56;13.13;;;7.53;;
11328;SDS011;5719;42.714;23.732;2022-07-03T01:53:24;8.73;;;7.05;;
11328;SDS011;5719;42.714;23.732;2022-07-03T01:55:53;9.45;;;7.13;;
11328;SDS011;5719;42.714;23.732;2022-07-03T01:58:23;9.68;;;7.63;;
11328;SDS011;5719;42.714;23.732;2022-07-03T02:00:50;11.95;;;7.50;;
11328;SDS011;5719;42.714;23.732;2022-07-03T02:05:53;9.60;;;7.97;;
11328;SDS011;5719;42.714;23.732;2022-07-03T02:08:30;10.52;;;7.45;;
11328;SDS011;5719;42.714;23.732;2022-07-03T02:11:10;12.82;;;7.97;;
11328;SDS011;5719;42.714;23.732;2022-07-03T02:13:48;9.65;;;8.18;;
11328;SDS011;5719;42.714;23.732;2022-07-03T02:16:19;11.80;;;8.50;;
11328;SDS011;5719;42.714;23.732;2022-07-03T02:18:50;8.52;;;7.38;;
11328;SDS011;5719;42.714;23.732;2022-07-03T02:21:24;8.25;;;6.72;;
11328;SDS011;5719;42.714;23.732;2022-07-03T02:23:57;7.47;;;6.40;;
11328;SDS011;5719;42.714;23.732;2022-07-03T02:26:32;8.32;;;7.40;;
11328;SDS011;5719;42.714;23.732;2022-07-03T02:29:03;9.25;;;7.43;;
11328;SDS011;5719;42.714;23.732;2022-07-03T02:31:33;8.05;;;6.65;;
11328;SDS011;5719;42.714;23.732;2022-07-03T02:34:05;8.05;;;7.25;;
11328;SDS011;5719;42.714;23.732;2022-07-03T02:36:33;11.35;;;6.93;;
11328;SDS011;5719;42.714;23.732;2022-07-03T02:39:01;10.63;;;7.03;;
11328;SDS011;5719;42.714;23.732;2022-07-03T02:41:36;10.32;;;7.47;;
11328;SDS011;5719;42.714;23.732;2022-07-03T02:44:14;7.20;;;6.50;;
11328;SDS011;5719;42.714;23.732;2022-07-03T02:46:50;7.20;;;6.28;;
11328;SDS011;5719;42.714;23.732;2022-07-03T02:49:41;8.68;;;7.05;;
11328;SDS011;5719;42.714;23.732;2022-07-03T02:52:13;14.10;;;7.45;;
11328;SDS011;5719;42.714;23.732;2022-07-03T02:54:47;9.10;;;7.78;;
11328;SDS011;5719;42.714;23.732;2022-07-03T02:57:16;9.43;;;6.78;;
11328;SDS011;5719;42.714;23.732;2022-07-03T02:59:53;9.88;;;6.95;;
11328;SDS011;5719;42.714;23.732;2022-07-03T03:02:40;7.97;;;7.00;;
11328;SDS011;5719;42.714;23.732;2022-07-03T03:05:20;9.38;;;6.88;;
11328;SDS011;5719;42.714;23.732;2022-07-03T03:07:53;9.23;;;7.10;;
11328;SDS011;5719;42.714;23.732;2022-07-03T03:10:26;11.25;;;6.95;;
11328;SDS011;5719;42.714;23.732;2022-07-03T03:25:09;12.23;;;7.15;;
11328;SDS011;5719;42.714;23.732;2022-07-03T03:27:36;13.07;;;7.53;;
11328;SDS011;5719;42.714;23.732;2022-07-03T03:30:03;10.93;;;7.65;;
11328;SDS011;5719;42.714;23.732;2022-07-03T03:32:31;10.40;;;7.10;;
11328;SDS011;5719;42.714;23.732;2022-07-03T03:35:01;10.25;;;6.97;;
11328;SDS011;5719;42.714;23.732;2022-07-03T03:37:28;10.32;;;7.38;;
11328;SDS011;5719;42.714;23.732;2022-07-03T03:39:56;11.65;;;6.95;;
11328;SDS011;5719;42.714;23.732;2022-07-03T03:42:25;8.70;;;7.85;;
11328;SDS011;5719;42.714;23.732;2022-07-03T03:44:52;9.32;;;7.85;;
11328;SDS011;5719;42.714;23.732;2022-07-03T03:47:18;12.23;;;7.50;;
11328;SDS011;5719;42.714;23.732;2022-07-03T03:49:45;8.60;;;7.45;;
11328;SDS011;5719;42.714;23.732;2022-07-03T03:52:12;10.05;;;7.68;;
11328;SDS011;5719;42.714;23.732;2022-07-03T03:54:39;7.78;;;6.93;;
11328;SDS011;5719;42.714;23.732;2022-07-03T03:57:16;10.18;;;8.05;;
11328;SDS011;5719;42.714;23.732;2022-07-03T03:59:46;9.48;;;8.20;;
11328;SDS011;5719;42.714;23.732;2022-07-03T04:02:13;10.18;;;8.20;;
11328;SDS011;5719;42.714;23.732;2022-07-03T04:04:40;11.95;;;8.20;;
11328;SDS011;5719;42.714;23.732;2022-07-03T04:07:07;13.85;;;8.70;;
11328;SDS011;5719;42.714;23.732;2022-07-03T04:09:34;10.32;;;8.50;;
11328;SDS011;5719;42.714;23.732;2022-07-03T04:12:02;12.50;;;8.23;;
11328;SDS011;5719;42.714;23.732;2022-07-03T04:14:29;9.90;;;7.30;;
11328;SDS011;5719;42.714;23.732;2022-07-03T04:16:58;10.85;;;7.68;;
11328;SDS011;5719;42.714;23.732;2022-07-03T04:19:25;8.35;;;7.43;;
11328;SDS011;5719;42.714;23.732;2022-07-03T04:21:52;8.85;;;7.50;;
11328;SDS011;5719;42.714;23.732;2022-07-03T04:24:19;11.98;;;8.52;;
11328;SDS011;5719;42.714;23.732;2022-07-03T04:26:46;11.57;;;8.00;;
11328;SDS011;5719;42.714;23.732;2022-07-03T04:29:13;9.68;;;8.20;;
11328;SDS011;5719;42.714;23.732;2022-07-03T04:31:40;10.32;;;8.23;;
11328;SDS011;5719;42.714;23.732;2022-07-03T04:34:09;9.90;;;7.95;;
11328;SDS011;5719;42.714;23.732;2022-07-03T04:36:36;9.77;;;8.38;;
11328;SDS011;5719;42.714;23.732;2022-07-03T04:39:03;9.50;;;8.52;;
11328;SDS011;5719;42.714;23.732;2022-07-03T04:41:30;9.00;;;8.13;;
11328;SDS011;5719;42.714;23.732;2022-07-03T04:43:57;12.63;;;7.75;;
11328;SDS011;5719;42.714;23.732;2022-07-03T04:46:24;13.85;;;8.30;;
11328;SDS011;5719;42.714;23.732;2022-07-03T04:48:50;15.63;;;8.10;;
11328;SDS011;5719;42.714;23.732;2022-07-03T04:51:19;10.50;;;8.60;;
11328;SDS011;5719;42.714;23.732;2022-07-03T04:53:46;9.52;;;8.60;;
11328;SDS011;5719;42.714;23.732;2022-07-03T04:56:12;11.55;;;10.13;;
11328;SDS011;5719;42.714;23.732;2022-07-03T04:58:39;15.93;;;10.55;;
11328;SDS011;5719;42.714;23.732;2022-07-03T05:01:06;15.38;;;11.32;;
11328;SDS011;5719;42.714;23.732;2022-07-03T05:03:33;16.05;;;11.75;;
11328;SDS011;5719;42.714;23.732;2022-07-03T05:06:00;13.73;;;12.27;;
11328;SDS011;5719;42.714;23.732;2022-07-03T05:08:33;15.45;;;11.35;;
11328;SDS011;5719;42.714;23.732;2022-07-03T05:11:00;14.98;;;10.82;;
11328;SDS011;5719;42.714;23.732;2022-07-03T05:13:27;12.18;;;10.23;;
11328;SDS011;5719;42.714;23.732;2022-07-03T05:15:54;12.88;;;10.52;;
11328;SDS011;5719;42.714;23.732;2022-07-03T05:18:21;11.50;;;10.18;;
11328;SDS011;5719;42.714;23.732;2022-07-03T05:20:48;19.20;;;11.55;;
11328;SDS011;5719;42.714;23.732;2022-07-03T05:23:15;15.07;;;11.43;;
11328;SDS011;5719;42.714;23.732;2022-07-03T05:25:43;12.63;;;10.60;;
11328;SDS011;5719;42.714;23.732;2022-07-03T05:28:10;10.80;;;9.65;;
11328;SDS011;5719;42.714;23.732;2022-07-03T05:30:37;16.67;;;9.27;;
11328;SDS011;5719;42.714;23.732;2022-07-03T05:33:04;12.68;;;9.88;;
11328;SDS011;5719;42.714;23.732;2022-07-03T05:35:31;13.88;;;9.55;;
11328;SDS011;5719;42.714;23.732;2022-07-03T05:37:58;11.23;;;10.10;;
11328;SDS011;5719;42.714;23.732;2022-07-03T05:40:25;15.18;;;10.05;;
11328;SDS011;5719;42.714;23.732;2022-07-03T05:42:53;12.25;;;10.00;;
11328;SDS011;5719;42.714;23.732;2022-07-03T05:45:20;12.80;;;10.60;;
11328;SDS011;5719;42.714;23.732;2022-07-03T05:47:47;10.32;;;9.23;;
11328;SDS011;5719;42.714;23.732;2022-07-03T05:50:14;14.52;;;9.98;;
11328;SDS011;5719;42.714;23.732;2022-07-03T05:52:41;10.20;;;8.63;;
11328;SDS011;5719;42.714;23.732;2022-07-03T05:55:08;11.60;;;9.63;;
11328;SDS011;5719;42.714;23.732;2022-07-03T05:57:35;12.10;;;9.10;;
11328;SDS011;5719;42.714;23.732;2022-07-03T06:00:04;10.82;;;8.98;;
11328;SDS011;5719;42.714;23.732;2022-07-03T06:02:32;15.50;;;8.45;;
11328;SDS011;5719;42.714;23.732;2022-07-03T06:04:59;8.70;;;7.90;;
11328;SDS011;5719;42.714;23.732;2022-07-03T06:07:26;8.98;;;7.38;;
11328;SDS011;5719;42.714;23.732;2022-07-03T06:09:53;9.65;;;7.75;;
11328;SDS011;5719;42.714;23.732;2022-07-03T06:12:20;8.38;;;7.57;;
11328;SDS011;5719;42.714;23.732;2022-07-03T06:14:46;10.30;;;7.82;;
11328;SDS011;5719;42.714;23.732;2022-07-03T06:17:15;8.50;;;7.70;;
11328;SDS011;5719;42.714;23.732;2022-07-03T06:19:42;8.60;;;7.53;;
11328;SDS011;5719;42.714;23.732;2022-07-03T06:22:09;10.00;;;8.13;;
11328;SDS011;5719;42.714;23.732;2022-07-03T06:24:36;10.70;;;7.75;;
11328;SDS011;5719;42.714;23.732;2022-07-03T06:27:03;9.95;;;7.53;;
11328;SDS011;5719;42.714;23.732;2022-07-03T06:29:32;9.38;;;8.00;;
11328;SDS011;5719;42.714;23.732;2022-07-03T06:31:59;10.18;;;7.90;;
11328;SDS011;5719;42.714;23.732;2022-07-03T06:34:27;8.57;;;7.68;;
11328;SDS011;5719;42.714;23.732;2022-07-03T06:36:54;15.75;;;7.70;;
11328;SDS011;5719;42.714;23.732;2022-07-03T06:39:21;9.68;;;7.85;;
11328;SDS011;5719;42.714;23.732;2022-07-03T06:41:48;10.85;;;7.95;;
11328;SDS011;5719;42.714;23.732;2022-07-03T06:44:15;15.15;;;7.47;;
11328;SDS011;5719;42.714;23.732;2022-07-03T06:46:42;10.18;;;7.72;;
11328;SDS011;5719;42.714;23.732;2022-07-03T06:49:09;11.15;;;7.57;;
11328;SDS011;5719;42.714;23.732;2022-07-03T06:51:38;10.63;;;7.63;;
11328;SDS011;5719;42.714;23.732;2022-07-03T06:54:05;8.85;;;7.88;;
11328;SDS011;5719;42.714;23.732;2022-07-03T06:56:32;16.58;;;8.43;;
11328;SDS011;5719;42.714;23.732;2022-07-03T06:58:59;8.93;;;8.02;;
11328;SDS011;5719;42.714;23.732;2022-07-03T07:01:26;9.50;;;8.10;;
11328;SDS011;5719;42.714;23.732;2022-07-03T07:03:53;10.50;;;7.40;;
11328;SDS011;5719;42.714;23.732;2022-07-03T07:06:20;7.93;;;7.07;;
11328;SDS011;5719;42.714;23.732;2022-07-03T07:08:49;11.13;;;7.35;;
11328;SDS011;5719;42.714;23.732;2022-07-03T07:11:16;7.78;;;6.97;;
11328;SDS011;5719;42.714;23.732;2022-07-03T07:13:43;8.43;;;7.13;;
11328;SDS011;5719;42.714;23.732;2022-07-03T07:16:10;12.13;;;7.47;;
11328;SDS011;5719;42.714;23.732;2022-07-03T07:18:39;8.57;;;6.68;;
11328;SDS011;5719;42.714;23.732;2022-07-03T07:21:06;8.07;;;6.57;;
11328;SDS011;5719;42.714;23.732;2022-07-03T07:23:33;7.40;;;6.53;;
11328;SDS011;5719;42.714;23.732;2022-07-03T07:26:02;6.65;;;5.78;;
11328;SDS011;5719;42.714;23.732;2022-07-03T07:28:29;8.45;;;5.90;;
11328;SDS011;5719;42.714;23.732;2022-07-03T07:30:58;7.63;;;6.72;;
11328;SDS011;5719;42.714;23.732;2022-07-03T07:33:25;12.00;;;6.85;;
11328;SDS011;5719;42.714;23.732;2022-07-03T07:35:52;11.73;;;6.70;;
11328;SDS011;5719;42.714;23.732;2022-07-03T07:38:19;12.43;;;7.60;;
11328;SDS011;5719;42.714;23.732;2022-07-03T07:40:46;6.57;;;5.97;;
11328;SDS011;5719;42.714;23.732;2022-07-03T07:43:14;11.50;;;6.03;;
11328;SDS011;5719;42.714;23.732;2022-07-03T07:45:42;13.35;;;6.40;;
11328;SDS011;5719;42.714;23.732;2022-07-03T07:48:09;6.28;;;5.63;;
11328;SDS011;5719;42.714;23.732;2022-07-03T07:50:36;12.20;;;5.43;;
11328;SDS011;5719;42.714;23.732;2022-07-03T07:53:03;10.00;;;5.85;;
11328;SDS011;5719;42.714;23.732;2022-07-03T07:55:30;6.05;;;5.43;;
11328;SDS011;5719;42.714;23.732;2022-07-03T07:57:56;9.52;;;5.32;;
11328;SDS011;5719;42.714;23.732;2022-07-03T08:00:25;5.32;;;4.82;;
11328;SDS011;5719;42.714;23.732;2022-07-03T08:02:52;8.60;;;5.13;;
11328;SDS011;5719;42.714;23.732;2022-07-03T08:05:36;6.10;;;5.50;;
11328;SDS011;5719;42.714;23.732;2022-07-03T08:08:04;7.95;;;5.00;;
11328;SDS011;5719;42.714;23.732;2022-07-03T08:10:33;8.90;;;5.07;;
11328;SDS011;5719;42.714;23.732;2022-07-03T08:13:01;7.82;;;4.80;;
11328;SDS011;5719;42.714;23.732;2022-07-03T08:15:30;6.63;;;5.15;;
11328;SDS011;5719;42.714;23.732;2022-07-03T08:17:57;5.22;;;4.72;;
11328;SDS011;5719;42.714;23.732;2022-07-03T08:20:24;5.90;;;4.95;;
11328;SDS011;5719;42.714;23.732;2022-07-03T08:22:51;5.32;;;4.82;;
11328;SDS011;5719;42.714;23.732;2022-07-03T08:25:18;6.97;;;4.80;;
11328;SDS011;5719;42.714;23.732;2022-07-03T08:27:45;5.57;;;5.07;;
11328;SDS011;5719;42.714;23.732;2022-07-03T08:30:13;5.88;;;4.97;;
11328;SDS011;5719;42.714;23.732;2022-07-03T08:32:44;6.43;;;5.05;;
11328;SDS011;5719;42.714;23.732;2022-07-03T08:35:11;5.75;;;4.75;;
11328;SDS011;5719;42.714;23.732;2022-07-03T08:37:38;8.88;;;5.28;;
11328;SDS011;5719;42.714;23.732;2022-07-03T08:40:08;7.97;;;4.72;;
11328;SDS011;5719;42.714;23.732;2022-07-03T08:42:36;4.95;;;4.47;;
11328;SDS011;5719;42.714;23.732;2022-07-03T08:45:05;10.85;;;4.70;;
11328;SDS011;5719;42.714;23.732;2022-07-03T08:47:34;7.70;;;4.80;;
11328;SDS011;5719;42.714;23.732;2022-07-03T08:50:06;5.65;;;4.35;;
11328;SDS011;5719;42.714;23.732;2022-07-03T08:52:33;7.55;;;4.78;;
11328;SDS011;5719;42.714;23.732;2022-07-03T08:55:01;6.65;;;4.72;;
11328;SDS011;5719;42.714;23.732;2022-07-03T08:57:29;5.57;;;4.40;;
11328;SDS011;5719;42.714;23.732;2022-07-03T08:59:57;12.73;;;4.28;;
11328;SDS011;5719;42.714;23.732;2022-07-03T09:02:27;6.43;;;4.82;;
11328;SDS011;5719;42.714;23.732;2022-07-03T09:04:55;8.73;;;4.55;;
11328;SDS011;5719;42.714;23.732;2022-07-03T09:07:25;7.30;;;4.88;;
11328;SDS011;5719;42.714;23.732;2022-07-03T09:09:52;4.63;;;4.22;;
11328;SDS011;5719;42.714;23.732;2022-07-03T09:12:21;5.78;;;4.38;;
11328;SDS011;5719;42.714;23.732;2022-07-03T09:14:48;7.25;;;4.43;;
11328;SDS011;5719;42.714;23.732;2022-07-03T09:17:15;6.80;;;3.90;;
11328;SDS011;5719;42.714;23.732;2022-07-03T09:19:43;5.05;;;4.10;;
11328;SDS011;5719;42.714;23.732;2022-07-03T09:22:19;4.35;;;3.95;;
11328;SDS011;5719;42.714;23.732;2022-07-03T09:24:49;7.82;;;4.00;;
11328;SDS011;5719;42.714;23.732;2022-07-03T09:27:17;5.05;;;4.18;;
11328;SDS011;5719;42.714;23.732;2022-07-03T09:29:52;5.35;;;4.28;;
11328;SDS011;5719;42.714;23.732;2022-07-03T09:32:24;9.85;;;4.03;;
11328;SDS011;5719;42.714;23.732;2022-07-03T09:37:38;6.32;;;4.20;;
11328;SDS011;5719;42.714;23.732;2022-07-03T09:40:08;7.10;;;3.95;;
11328;SDS011;5719;42.714;23.732;2022-07-03T09:42:35;4.22;;;3.83;;
11328;SDS011;5719;42.714;23.732;2022-07-03T09:45:03;4.85;;;3.85;;
11328;SDS011;5719;42.714;23.732;2022-07-03T09:47:30;4.30;;;3.90;;
11328;SDS011;5719;42.714;23.732;2022-07-03T09:49:58;4.70;;;3.88;;
11328;SDS011;5719;42.714;23.732;2022-07-03T09:52:32;8.13;;;3.95;;
11328;SDS011;5719;42.714;23.732;2022-07-03T09:55:01;4.40;;;3.95;;
11328;SDS011;5719;42.714;23.732;2022-07-03T09:57:40;5.93;;;3.78;;
11328;SDS011;5719;42.714;23.732;2022-07-03T10:00:13;5.53;;;3.40;;
11328;SDS011;5719;42.714;23.732;2022-07-03T10:02:51;4.82;;;3.70;;
11328;SDS011;5719;42.714;23.732;2022-07-03T10:05:25;4.50;;;3.27;;
11328;SDS011;5719;42.714;23.732;2022-07-03T10:07:53;6.72;;;4.03;;
11328;SDS011;5719;42.714;23.732;2022-07-03T10:10:24;11.55;;;4.07;;
11328;SDS011;5719;42.714;23.732;2022-07-03T10:12:53;4.47;;;3.75;;
11328;SDS011;5719;42.714;23.732;2022-07-03T10:15:22;9.63;;;3.47;;
11328;SDS011;5719;42.714;23.732;2022-07-03T10:17:50;8.30;;;3.92;;
11328;SDS011;5719;42.714;23.732;2022-07-03T10:20:25;5.53;;;3.63;;
11328;SDS011;5719;42.714;23.732;2022-07-03T10:22:53;7.40;;;3.70;;
11328;SDS011;5719;42.714;23.732;2022-07-03T10:25:21;4.93;;;3.53;;
11328;SDS011;5719;42.714;23.732;2022-07-03T10:27:50;6.32;;;3.50;;
11328;SDS011;5719;42.714;23.732;2022-07-03T10:30:18;7.90;;;3.75;;
11328;SDS011;5719;42.714;23.732;2022-07-03T10:32:48;3.80;;;3.38;;
11328;SDS011;5719;42.714;23.732;2022-07-03T10:35:19;7.35;;;3.20;;
11328;SDS011;5719;42.714;23.732;2022-07-03T10:38:02;5.78;;;3.63;;
11328;SDS011;5719;42.714;23.732;2022-07-03T10:40:43;6.20;;;3.03;;
11328;SDS011;5719;42.714;23.732;2022-07-03T10:43:38;6.30;;;3.50;;
11328;SDS011;5719;42.714;23.732;2022-07-03T10:46:25;5.47;;;3.33;;
11328;SDS011;5719;42.714;23.732;2022-07-03T10:48:56;4.03;;;3.47;;
11328;SDS011;5719;42.714;23.732;2022-07-03T10:51:25;5.07;;;3.15;;
11328;SDS011;5719;42.714;23.732;2022-07-03T10:54:12;7.20;;;3.70;;
11328;SDS011;5719;42.714;23.732;2022-07-03T11:02:26;5.75;;;3.53;;
11328;SDS011;5719;42.714;23.732;2022-07-03T11:08:03;5.07;;;3.30;;
11328;SDS011;5719;42.714;23.732;2022-07-03T11:10:35;6.38;;;3.35;;
11328;SDS011;5719;42.714;23.732;2022-07-03T11:13:18;3.95;;;3.00;;
11328;SDS011;5719;42.714;23.732;2022-07-03T11:15:53;5.93;;;3.25;;
11328;SDS011;5719;42.714;23.732;2022-07-03T11:18:25;6.22;;;3.38;;
11328;SDS011;5719;42.714;23.732;2022-07-03T11:27:11;5.90;;;3.13;;
11328;SDS011;5719;42.714;23.732;2022-07-03T11:29:51;4.13;;;3.28;;
11328;SDS011;5719;42.714;23.732;2022-07-03T11:38:16;4.40;;;3.35;;
11328;SDS011;5719;42.714;23.732;2022-07-03T11:40:47;6.43;;;3.25;;
11328;SDS011;5719;42.714;23.732;2022-07-03T11:43:16;8.20;;;3.20;;
11328;SDS011;5719;42.714;23.732;2022-07-03T11:45:43;6.07;;;3.20;;
11328;SDS011;5719;42.714;23.732;2022-07-03T11:48:15;4.15;;;3.03;;
11328;SDS011;5719;42.714;23.732;2022-07-03T11:50:43;4.22;;;3.83;;
11328;SDS011;5719;42.714;23.732;2022-07-03T11:53:14;5.07;;;3.90;;
11328;SDS011;5719;42.714;23.732;2022-07-03T11:55:54;8.25;;;4.03;;
11328;SDS011;5719;42.714;23.732;2022-07-03T11:58:22;5.32;;;3.67;;
11328;SDS011;5719;42.714;23.732;2022-07-03T12:00:50;5.53;;;3.70;;
11328;SDS011;5719;42.714;23.732;2022-07-03T12:03:24;7.82;;;3.55;;
11328;SDS011;5719;42.714;23.732;2022-07-03T12:05:52;11.32;;;3.95;;
11328;SDS011;5719;42.714;23.732;2022-07-03T12:08:21;6.25;;;3.67;;
11328;SDS011;5719;42.714;23.732;2022-07-03T12:10:49;8.23;;;4.45;;
11328;SDS011;5719;42.714;23.732;2022-07-03T12:13:19;15.32;;;4.90;;
11328;SDS011;5719;42.714;23.732;2022-07-03T12:15:46;15.20;;;4.35;;
11328;SDS011;5719;42.714;23.732;2022-07-03T12:18:13;4.47;;;4.07;;
11328;SDS011;5719;42.714;23.732;2022-07-03T12:20:42;10.05;;;5.00;;
11328;SDS011;5719;42.714;23.732;2022-07-03T12:23:09;11.93;;;5.20;;
11328;SDS011;5719;42.714;23.732;2022-07-03T12:25:38;6.53;;;4.70;;
11328;SDS011;5719;42.714;23.732;2022-07-03T12:28:06;5.00;;;4.50;;
11328;SDS011;5719;42.714;23.732;2022-07-03T12:30:35;6.25;;;4.63;;
11328;SDS011;5719;42.714;23.732;2022-07-03T12:33:03;9.52;;;4.93;;
11328;SDS011;5719;42.714;23.732;2022-07-03T12:35:30;5.50;;;5.00;;
11328;SDS011;5719;42.714;23.732;2022-07-03T12:37:58;8.90;;;5.38;;
11328;SDS011;5719;42.714;23.732;2022-07-03T12:40:25;9.23;;;4.88;;
11328;SDS011;5719;42.714;23.732;2022-07-03T12:42:53;9.07;;;5.57;;
11328;SDS011;5719;42.714;23.732;2022-07-03T12:45:22;7.35;;;4.95;;
11328;SDS011;5719;42.714;23.732;2022-07-03T12:47:56;5.30;;;4.80;;
11328;SDS011;5719;42.714;23.732;2022-07-03T12:50:24;7.95;;;4.65;;
11328;SDS011;5719;42.714;23.732;2022-07-03T12:52:52;6.35;;;5.03;;
11328;SDS011;5719;42.714;23.732;2022-07-03T12:55:24;9.48;;;4.80;;
11328;SDS011;5719;42.714;23.732;2022-07-03T12:58:11;6.85;;;4.80;;
11328;SDS011;5719;42.714;23.732;2022-07-03T13:00:57;8.20;;;5.00;;
11328;SDS011;5719;42.714;23.732;2022-07-03T13:03:28;4.97;;;4.57;;
11328;SDS011;5719;42.714;23.732;2022-07-03T13:05:55;5.78;;;5.00;;
11328;SDS011;5719;42.714;23.732;2022-07-03T13:08:22;10.93;;;5.13;;
11328;SDS011;5719;42.714;23.732;2022-07-03T13:10:57;5.03;;;4.50;;
11328;SDS011;5719;42.714;23.732;2022-07-03T13:13:25;6.03;;;4.80;;
11328;SDS011;5719;42.714;23.732;2022-07-03T13:15:52;6.00;;;5.28;;
11328;SDS011;5719;42.714;23.732;2022-07-03T13:18:19;6.90;;;4.10;;
11328;SDS011;5719;42.714;23.732;2022-07-03T13:20:47;7.72;;;4.80;;
11328;SDS011;5719;42.714;23.732;2022-07-03T13:23:14;9.30;;;4.72;;
11328;SDS011;5719;42.714;23.732;2022-07-03T13:25:41;7.05;;;4.40;;
11328;SDS011;5719;42.714;23.732;2022-07-03T13:28:13;5.93;;;4.68;;
11328;SDS011;5719;42.714;23.732;2022-07-03T13:30:41;7.38;;;4.28;;
11328;SDS011;5719;42.714;23.732;2022-07-03T13:33:09;5.20;;;4.70;;
11328;SDS011;5719;42.714;23.732;2022-07-03T13:35:36;5.65;;;4.13;;
11328;SDS011;5719;42.714;23.732;2022-07-03T13:38:03;5.20;;;4.60;;
11328;SDS011;5719;42.714;23.732;2022-07-03T13:40:30;6.13;;;4.15;;
11328;SDS011;5719;42.714;23.732;2022-07-03T13:42:59;13.57;;;4.25;;
11328;SDS011;5719;42.714;23.732;2022-07-03T13:45:27;7.80;;;3.90;;
11328;SDS011;5719;42.714;23.732;2022-07-03T13:47:55;4.18;;;3.88;;
11328;SDS011;5719;42.714;23.732;2022-07-03T13:50:22;4.68;;;4.28;;
11328;SDS011;5719;42.714;23.732;2022-07-03T13:52:49;7.40;;;4.25;;
11328;SDS011;5719;42.714;23.732;2022-07-03T13:55:16;8.70;;;4.97;;
11328;SDS011;5719;42.714;23.732;2022-07-03T13:57:43;4.43;;;3.97;;
11328;SDS011;5719;42.714;23.732;2022-07-03T14:00:10;4.93;;;4.32;;
11328;SDS011;5719;42.714;23.732;2022-07-03T14:02:39;4.60;;;4.10;;
11328;SDS011;5719;42.714;23.732;2022-07-03T14:05:06;7.95;;;3.97;;
11328;SDS011;5719;42.714;23.732;2022-07-03T14:07:34;7.10;;;3.80;;
11328;SDS011;5719;42.714;23.732;2022-07-03T14:10:01;7.45;;;4.10;;
11328;SDS011;5719;42.714;23.732;2022-07-03T14:12:28;4.28;;;3.97;;
11328;SDS011;5719;42.714;23.732;2022-07-03T14:14:55;8.23;;;4.10;;
11328;SDS011;5719;42.714;23.732;2022-07-03T14:17:22;6.35;;;4.00;;
11328;SDS011;5719;42.714;23.732;2022-07-03T14:19:50;7.78;;;4.00;;
11328;SDS011;5719;42.714;23.732;2022-07-03T14:22:17;4.32;;;4.00;;
11328;SDS011;5719;42.714;23.732;2022-07-03T14:24:44;5.88;;;3.97;;
11328;SDS011;5719;42.714;23.732;2022-07-03T14:27:11;9.27;;;4.20;;
11328;SDS011;5719;42.714;23.732;2022-07-03T14:29:55;8.20;;;3.90;;
11328;SDS011;5719;42.714;23.732;2022-07-03T14:32:40;12.90;;;4.35;;
11328;SDS011;5719;42.714;23.732;2022-07-03T14:35:11;4.63;;;3.70;;
11328;SDS011;5719;42.714;23.732;2022-07-03T14:37:38;5.43;;;3.80;;
11328;SDS011;5719;42.714;23.732;2022-07-03T14:40:05;6.57;;;3.60;;
11328;SDS011;5719;42.714;23.732;2022-07-03T14:42:33;9.20;;;3.60;;
11328;SDS011;5719;42.714;23.732;2022-07-03T14:45:00;6.15;;;3.63;;
11328;SDS011;5719;42.714;23.732;2022-07-03T14:47:27;5.82;;;4.40;;
11328;SDS011;5719;42.714;23.732;2022-07-03T14:49:54;7.35;;;3.50;;
11328;SDS011;5719;42.714;23.732;2022-07-03T14:52:23;9.35;;;3.63;;
11328;SDS011;5719;42.714;23.732;2022-07-03T14:54:50;3.80;;;3.50;;
11328;SDS011;5719;42.714;23.732;2022-07-03T14:57:23;10.20;;;3.65;;
11328;SDS011;5719;42.714;23.732;2022-07-03T14:59:57;3.72;;;3.30;;
11328;SDS011;5719;42.714;23.732;2022-07-03T15:02:32;6.53;;;4.03;;
11328;SDS011;5719;42.714;23.732;2022-07-03T15:05:06;6.30;;;3.63;;
11328;SDS011;5719;42.714;23.732;2022-07-03T15:07:39;11.52;;;3.63;;
11328;SDS011;5719;42.714;23.732;2022-07-03T15:10:07;4.35;;;3.58;;
11328;SDS011;5719;42.714;23.732;2022-07-03T15:12:37;6.35;;;3.58;;
11328;SDS011;5719;42.714;23.732;2022-07-03T15:15:10;5.60;;;3.72;;
11328;SDS011;5719;42.714;23.732;2022-07-03T15:17:37;5.40;;;3.78;;
11328;SDS011;5719;42.714;23.732;2022-07-03T15:20:06;6.93;;;3.55;;
11328;SDS011;5719;42.714;23.732;2022-07-03T15:22:39;6.50;;;3.88;;
11328;SDS011;5719;42.714;23.732;2022-07-03T15:25:08;8.70;;;3.80;;
11328;SDS011;5719;42.714;23.732;2022-07-03T15:27:35;5.43;;;3.45;;
11328;SDS011;5719;42.714;23.732;2022-07-03T15:30:04;5.72;;;3.80;;
11328;SDS011;5719;42.714;23.732;2022-07-03T15:32:33;9.20;;;3.55;;
11328;SDS011;5719;42.714;23.732;2022-07-03T15:34:59;3.60;;;3.40;;
11328;SDS011;5719;42.714;23.732;2022-07-03T15:37:35;4.38;;;3.65;;